Time;durP1;ratioP1;P1;durP2;ratioP2;P2;SDS_P1;SDS_P2;PMS_P1;PMS_P2;Temp;Humidity;BMP_temperature;BMP_pressure;BME280_temperature;BME280_humidity;BME280_pressure;Samples;Min_cycle;Max_cycle;Signal;HPM_P1;HPM_P2
2022/05/31 00:00:22;;;;;;;2.20;2.00;;;14.20;1.00;;;;;;4964563;28;21088;-73
2022/05/31 00:02:49;;;;;;;4.30;1.80;;;14.20;1.00;;;;;;4962788;28;20442;-73
2022/05/31 00:05:15;;;;;;;1.67;1.57;;;14.20;1.00;;;;;;4963328;28;20579;-72
2022/05/31 00:07:42;;;;;;;3.00;1.63;;;14.20;1.00;;;;;;4966130;28;20934;-73
2022/05/31 00:10:12;;;;;;;2.07;1.67;;;14.30;1.00;;;;;;4965059;28;20536;-73
2022/05/31 00:12:39;;;;;;;3.60;1.97;;;14.30;1.00;;;;;;4949944;28;20787;-73
2022/05/31 00:15:07;;;;;;;2.90;1.73;;;14.30;1.00;;;;;;4959347;28;20443;-73
2022/05/31 00:17:32;;;;;;;5.00;1.63;;;14.30;1.00;;;;;;4968490;28;20427;-73
2022/05/31 00:19:58;;;;;;;3.40;1.60;;;14.30;1.00;;;;;;4949977;28;21004;-73
2022/05/31 00:22:25;;;;;;;4.87;1.70;;;14.20;1.00;;;;;;4959481;28;20191;-72
2022/05/31 00:24:51;;;;;;;2.33;1.83;;;14.30;1.00;;;;;;4959119;28;20197;-72
2022/05/31 00:27:20;;;;;;;1.90;1.70;;;14.20;1.00;;;;;;4974782;28;20481;-73
2022/05/31 00:29:47;;;;;;;2.00;1.70;;;14.30;1.00;;;;;;4974034;28;20192;-72
2022/05/31 00:32:15;;;;;;;2.20;1.77;;;14.20;1.00;;;;;;4962213;28;20455;-72
2022/05/31 00:34:44;;;;;;;1.87;1.67;;;14.20;1.00;;;;;;4959509;28;20465;-73
2022/05/31 00:37:10;;;;;;;2.07;1.50;;;14.20;1.00;;;;;;4968910;28;20455;-72
2022/05/31 00:39:36;;;;;;;2.97;2.03;;;14.20;1.00;;;;;;4960167;28;20542;-73
2022/05/31 00:42:06;;;;;;;2.63;1.60;;;14.20;1.00;;;;;;4973019;28;20175;-73
2022/05/31 00:44:33;;;;;;;2.33;1.60;;;14.10;1.00;;;;;;4968211;28;20434;-73
2022/05/31 00:47:06;;;;;;;1.77;1.60;;;14.10;1.00;;;;;;4965431;28;20439;-73
2022/05/31 00:49:33;;;;;;;1.80;1.70;;;14.10;1.00;;;;;;4970515;28;20463;-73
2022/05/31 00:52:14;;;;;;;3.07;1.67;;;14.10;1.00;;;;;;4964506;28;20426;-73
2022/05/31 00:54:47;;;;;;;1.80;1.57;;;14.10;1.00;;;;;;4972769;28;20446;-73
2022/05/31 00:57:13;;;;;;;3.37;1.50;;;14.10;1.00;;;;;;4970767;28;20501;-73
2022/05/31 00:59:47;;;;;;;2.17;1.80;;;14.10;1.00;;;;;;4967872;28;20462;-73
2022/05/31 01:02:15;;;;;;;3.90;1.70;;;14.10;1.00;;;;;;4962614;28;20222;-73
2022/05/31 01:04:44;;;;;;;1.60;1.50;;;14.10;1.00;;;;;;4967136;28;20517;-73
2022/05/31 01:07:10;;;;;;;4.43;1.70;;;14.10;1.00;;;;;;4970901;28;20445;-73
2022/05/31 01:09:36;;;;;;;2.00;1.60;;;14.10;1.00;;;;;;4959245;28;20424;-73
2022/05/31 01:12:03;;;;;;;2.40;1.70;;;14.10;1.00;;;;;;4973442;28;20191;-73
2022/05/31 01:14:30;;;;;;;2.10;1.60;;;14.00;1.00;;;;;;4960186;28;20473;-73
2022/05/31 01:17:23;;;;;;;3.30;1.80;;;13.90;1.00;;;;;;4956454;28;20431;-73
2022/05/31 01:19:56;;;;;;;2.67;2.03;;;13.80;1.00;;;;;;4959790;28;20989;-73
2022/05/31 01:22:39;;;;;;;2.17;1.70;;;13.60;1.00;;;;;;4975077;28;20486;-73
2022/05/31 01:25:16;;;;;;;2.23;1.70;;;13.40;1.00;;;;;;4978363;28;20451;-72
2022/05/31 01:28:16;;;;;;;2.70;1.90;;;13.20;4.00;;;;;;4967373;28;20658;-72
2022/05/31 01:31:00;;;;;;;4.80;2.00;;;12.90;5.60;;;;;;4944821;28;20432;-73
2022/05/31 01:33:38;;;;;;;2.23;2.03;;;12.70;5.50;;;;;;4974672;28;20434;-73
2022/05/31 01:36:11;;;;;;;2.43;1.70;;;12.50;8.80;;;;;;4963616;28;20466;-73
2022/05/31 01:38:52;;;;;;;3.67;2.23;;;12.40;8.40;;;;;;4965205;28;20546;-73
2022/05/31 01:41:25;;;;;;;3.30;1.90;;;12.20;11.90;;;;;;4968445;28;20439;-73
2022/05/31 01:43:53;;;;;;;2.60;1.80;;;12.10;14.50;;;;;;4958461;28;20436;-72
2022/05/31 01:46:27;;;;;;;3.10;2.10;;;12.00;12.60;;;;;;4971101;28;20558;-73
2022/05/31 01:48:54;;;;;;;2.43;2.23;;;11.80;15.90;;;;;;4967036;28;20450;-73
2022/05/31 01:51:21;;;;;;;2.53;2.00;;;11.60;18.10;;;;;;4968785;28;20488;-73
2022/05/31 01:53:47;;;;;;;3.87;2.10;;;11.40;22.00;;;;;;4979384;28;20464;-72
2022/05/31 01:56:13;;;;;;;1.93;1.83;;;11.30;20.30;;;;;;4970068;28;20494;-73
2022/05/31 01:58:42;;;;;;;2.93;2.03;;;11.20;20.90;;;;;;4970483;28;20191;-72
2022/05/31 02:01:09;;;;;;;3.70;2.23;;;11.10;26.10;;;;;;4968395;28;20195;-73
2022/05/31 02:03:37;;;;;;;1.80;1.70;;;11.00;27.60;;;;;;4978174;28;20747;-72
2022/05/31 02:06:03;;;;;;;2.40;2.20;;;10.90;29.90;;;;;;4979558;28;20479;-73
2022/05/31 02:08:33;;;;;;;2.20;2.00;;;10.80;33.60;;;;;;4966021;28;21009;-72
2022/05/31 02:10:59;;;;;;;2.00;1.80;;;10.70;38.60;;;;;;4967136;28;20690;-73
2022/05/31 02:13:28;;;;;;;3.57;2.67;;;10.60;38.00;;;;;;4964423;28;20408;-72
2022/05/31 02:15:54;;;;;;;6.23;2.40;;;10.60;38.40;;;;;;4967895;28;20254;-72
2022/05/31 02:18:22;;;;;;;3.20;2.10;;;10.50;38.30;;;;;;4967335;28;20493;-72
2022/05/31 02:20:48;;;;;;;4.00;2.30;;;10.50;38.30;;;;;;4971344;28;20462;-72
2022/05/31 02:23:13;;;;;;;2.63;2.27;;;10.60;38.40;;;;;;4974873;28;20906;-73
2022/05/31 02:25:40;;;;;;;2.60;2.10;;;10.70;38.70;;;;;;4977558;28;20230;-72
2022/05/31 02:28:05;;;;;;;2.33;2.13;;;10.80;38.60;;;;;;4965405;28;20165;-73
2022/05/31 02:30:31;;;;;;;2.30;2.10;;;10.90;38.70;;;;;;4967728;28;20796;-72
2022/05/31 02:32:56;;;;;;;5.80;2.20;;;10.90;38.70;;;;;;4969360;28;20246;-72
2022/05/31 02:35:22;;;;;;;4.07;2.27;;;10.90;38.60;;;;;;4970871;28;20210;-72
2022/05/31 02:37:48;;;;;;;2.27;2.07;;;10.80;38.60;;;;;;4974344;28;20172;-73
2022/05/31 02:40:13;;;;;;;2.63;2.37;;;10.80;38.80;;;;;;4962155;28;20207;-72
2022/05/31 02:42:39;;;;;;;2.40;2.20;;;10.80;38.50;;;;;;4967935;28;20588;-72
2022/05/31 02:45:07;;;;;;;3.67;2.30;;;10.80;38.50;;;;;;4966136;28;20191;-73
2022/05/31 02:47:32;;;;;;;2.10;1.90;;;10.80;38.50;;;;;;4960181;28;20526;-72
2022/05/31 02:49:58;;;;;;;2.23;2.03;;;10.80;38.60;;;;;;4967540;28;20890;-73
2022/05/31 02:52:23;;;;;;;4.33;2.00;;;10.90;38.60;;;;;;4968022;28;20188;-73
2022/05/31 02:54:49;;;;;;;2.87;2.40;;;11.00;38.60;;;;;;4976855;28;20226;-72
2022/05/31 02:57:14;;;;;;;3.00;2.20;;;11.00;38.50;;;;;;4967035;28;20192;-72
2022/05/31 02:59:40;;;;;;;2.40;1.83;;;11.00;38.80;;;;;;4952276;28;20637;-72
2022/05/31 03:02:06;;;;;;;2.20;2.00;;;11.00;38.70;;;;;;4972564;28;20514;-72
2022/05/31 03:04:32;;;;;;;2.33;2.13;;;11.00;38.70;;;;;;4947509;28;20215;-72
2022/05/31 03:07:01;;;;;;;2.37;2.17;;;11.10;38.80;;;;;;4967649;28;20184;-72
2022/05/31 03:09:28;;;;;;;3.97;2.67;;;11.10;38.80;;;;;;4962136;28;20554;-72
2022/05/31 03:12:05;;;;;;;5.10;2.43;;;11.00;38.90;;;;;;4960051;28;20495;-73
2022/05/31 03:14:49;;;;;;;4.00;2.80;;;11.00;38.80;;;;;;4958175;28;20524;-73
2022/05/31 03:17:26;;;;;;;3.67;3.13;;;10.90;38.70;;;;;;4946079;28;21027;-72
2022/05/31 03:20:21;;;;;;;3.23;2.70;;;10.70;38.60;;;;;;4956537;28;20474;-73
2022/05/31 03:22:52;;;;;;;4.13;3.07;;;10.70;38.50;;;;;;4955101;28;20431;-73
2022/05/31 03:25:26;;;;;;;5.20;2.60;;;10.70;38.60;;;;;;4969877;28;20914;-73
2022/05/31 03:27:57;;;;;;;3.10;2.60;;;10.60;38.50;;;;;;4958113;28;20992;-73
2022/05/31 03:30:22;;;;;;;3.70;2.80;;;10.70;41.00;;;;;;4972079;28;20413;-73
2022/05/31 03:32:50;;;;;;;3.07;2.60;;;10.80;38.70;;;;;;4967395;28;20878;-72
2022/05/31 03:35:15;;;;;;;4.90;2.80;;;10.90;40.20;;;;;;4973394;28;20222;-73
2022/05/31 03:37:41;;;;;;;3.27;2.40;;;10.90;38.80;;;;;;4981102;28;20513;-73
2022/05/31 03:40:07;;;;;;;4.63;2.63;;;10.80;39.00;;;;;;4959290;28;20219;-73
2022/05/31 03:42:33;;;;;;;3.03;2.70;;;10.80;40.40;;;;;;4975610;28;20669;-73
2022/05/31 03:44:59;;;;;;;3.97;2.80;;;10.90;38.90;;;;;;4970209;28;20461;-72
2022/05/31 03:47:25;;;;;;;4.00;2.97;;;11.00;43.40;;;;;;4980308;28;20418;-73
2022/05/31 03:49:50;;;;;;;3.93;3.00;;;11.00;41.40;;;;;;4952536;28;20736;-72
2022/05/31 03:52:16;;;;;;;7.40;3.17;;;11.00;40.20;;;;;;4967548;28;20233;-72
2022/05/31 03:54:41;;;;;;;6.50;3.27;;;10.90;40.60;;;;;;4964370;28;20239;-72
2022/05/31 03:57:12;;;;;;;4.17;3.07;;;11.00;40.40;;;;;;4966597;28;20191;-72
2022/05/31 03:59:38;;;;;;;4.37;3.13;;;11.10;39.50;;;;;;4967022;28;20231;-72
2022/05/31 04:02:06;;;;;;;4.20;2.93;;;11.20;40.60;;;;;;4977331;28;20429;-72
2022/05/31 04:04:33;;;;;;;10.83;3.67;;;11.30;44.40;;;;;;4955157;28;20475;-73
2022/05/31 04:06:58;;;;;;;5.40;3.07;;;11.40;39.90;;;;;;4962888;28;20977;-73
2022/05/31 04:09:24;;;;;;;6.30;3.43;;;11.50;39.30;;;;;;4960045;28;20442;-73
2022/05/31 04:11:49;;;;;;;4.87;3.23;;;11.50;39.40;;;;;;4951381;28;20196;-72
2022/05/31 04:14:16;;;;;;;3.50;3.20;;;11.50;39.40;;;;;;4969087;28;20199;-72
2022/05/31 04:16:41;;;;;;;7.60;3.60;;;11.30;48.60;;;;;;4960824;28;20361;-72
2022/05/31 04:19:07;;;;;;;9.63;4.27;;;11.30;47.20;;;;;;4960216;28;20646;-73
2022/05/31 04:21:32;;;;;;;4.03;2.73;;;11.40;46.70;;;;;;4958929;28;20188;-73
2022/05/31 04:23:58;;;;;;;6.90;3.83;;;11.40;46.70;;;;;;4976261;28;20184;-72
2022/05/31 04:26:25;;;;;;;4.70;3.30;;;11.40;42.30;;;;;;4961912;28;20671;-73
2022/05/31 04:28:50;;;;;;;4.97;3.10;;;11.40;48.10;;;;;;4966030;28;20271;-73
2022/05/31 04:31:16;;;;;;;4.70;3.27;;;11.30;50.60;;;;;;4971944;28;20496;-72
2022/05/31 04:33:42;;;;;;;9.43;3.23;;;11.30;50.80;;;;;;4991751;28;20176;-73
2022/05/31 04:36:12;;;;;;;7.23;3.50;;;11.30;51.30;;;;;;4970900;28;20292;-73
2022/05/31 04:38:39;;;;;;;6.90;3.60;;;11.40;50.20;;;;;;4957186;28;20184;-73
2022/05/31 04:41:05;;;;;;;3.93;3.10;;;11.60;45.20;;;;;;4959101;28;20514;-72
2022/05/31 04:43:32;;;;;;;4.83;3.63;;;11.60;43.10;;;;;;4963597;28;20471;-73
2022/05/31 04:45:58;;;;;;;3.67;3.07;;;11.60;42.80;;;;;;4972993;28;20454;-73
2022/05/31 04:48:23;;;;;;;4.10;2.97;;;11.50;46.70;;;;;;4982572;28;20808;-72
2022/05/31 04:50:49;;;;;;;4.40;3.57;;;11.70;44.20;;;;;;4982657;28;20458;-72
2022/05/31 04:53:14;;;;;;;4.50;3.33;;;11.80;44.00;;;;;;4957399;28;20194;-72
2022/05/31 04:55:40;;;;;;;4.53;3.30;;;12.00;42.50;;;;;;4961431;28;20766;-73
2022/05/31 04:58:06;;;;;;;4.17;3.07;;;12.10;40.20;;;;;;4965690;28;20187;-73
2022/05/31 05:00:31;;;;;;;3.53;2.80;;;12.20;40.70;;;;;;4953871;28;20200;-73
2022/05/31 05:02:57;;;;;;;4.10;3.20;;;12.20;40.00;;;;;;4966256;28;20188;-73
2022/05/31 05:05:23;;;;;;;4.13;3.10;;;12.20;40.40;;;;;;4965852;28;20627;-73
2022/05/31 05:07:49;;;;;;;3.47;3.17;;;12.20;42.30;;;;;;4970095;28;20218;-73
2022/05/31 05:10:15;;;;;;;5.30;3.73;;;12.20;43.30;;;;;;4972674;28;20434;-73
2022/05/31 05:12:40;;;;;;;6.60;3.50;;;12.20;44.00;;;;;;4964211;28;20708;-73
2022/05/31 05:15:06;;;;;;;4.90;3.67;;;12.30;43.40;;;;;;4963715;28;20211;-73
2022/05/31 05:17:32;;;;;;;3.20;2.60;;;12.30;42.00;;;;;;4968049;28;20575;-73
2022/05/31 05:19:58;;;;;;;4.47;2.77;;;12.40;40.10;;;;;;4965128;28;20234;-73
2022/05/31 05:22:24;;;;;;;8.93;2.90;;;12.40;40.10;;;;;;4968615;28;20443;-73
2022/05/31 05:24:49;;;;;;;7.00;3.43;;;12.50;40.30;;;;;;4950335;28;20191;-73
2022/05/31 05:27:15;;;;;;;4.60;3.10;;;12.60;40.30;;;;;;4970366;28;20712;-73
2022/05/31 05:32:24;;;;;;;4.03;2.70;;;12.70;40.20;;;;;;4966965;28;20275;-73
2022/05/31 05:34:52;;;;;;;4.43;2.80;;;12.90;40.50;;;;;;4974151;28;20525;-73
2022/05/31 05:37:18;;;;;;;3.80;2.77;;;13.00;40.60;;;;;;4957928;28;20184;-73
2022/05/31 05:39:45;;;;;;;5.10;2.93;;;13.20;40.60;;;;;;4964622;28;20480;-73
2022/05/31 05:42:11;;;;;;;2.80;2.03;;;13.30;40.70;;;;;;4973440;28;20711;-73
2022/05/31 05:44:37;;;;;;;5.57;2.50;;;13.50;22.30;;;;;;4964963;28;20467;-73
2022/05/31 05:47:07;;;;;;;3.03;2.20;;;13.70;18.80;;;;;;4960872;28;20444;-73
2022/05/31 05:49:32;;;;;;;2.80;2.30;;;14.00;12.80;;;;;;4960826;28;20550;-72
2022/05/31 05:52:00;;;;;;;3.43;1.90;;;14.20;9.60;;;;;;4969069;28;20439;-73
2022/05/31 05:54:26;;;;;;;3.47;2.23;;;14.30;9.30;;;;;;4976008;28;20211;-73
2022/05/31 05:56:51;;;;;;;3.07;2.47;;;14.50;6.80;;;;;;4955695;28;20778;-73
2022/05/31 05:59:18;;;;;;;4.20;2.10;;;14.70;8.20;;;;;;4966193;28;20218;-73
2022/05/31 06:01:51;;;;;;;3.10;2.80;;;14.80;4.60;;;;;;4971756;28;20176;-73
2022/05/31 06:04:37;;;;;;;3.20;2.23;;;14.90;3.00;;;;;;4952918;28;20475;-73
2022/05/31 06:07:18;;;;;;;2.70;2.20;;;15.00;1.00;;;;;;4966255;28;20432;-73
2022/05/31 06:09:54;;;;;;;2.70;2.43;;;15.10;2.70;;;;;;4963756;28;20584;-73
2022/05/31 06:12:25;;;;;;;2.63;2.27;;;15.20;3.20;;;;;;4965010;28;20435;-73
2022/05/31 06:14:58;;;;;;;2.83;2.23;;;15.20;2.60;;;;;;4963498;28;20463;-73
2022/05/31 06:17:35;;;;;;;2.30;2.10;;;15.30;2.10;;;;;;4959905;28;20427;-73
2022/05/31 06:20:05;;;;;;;4.20;2.27;;;15.40;1.00;;;;;;4959060;28;20543;-74
2022/05/31 06:22:31;;;;;;;3.30;2.20;;;15.50;1.00;;;;;;4967260;28;20419;-73
2022/05/31 06:24:58;;;;;;;2.70;2.13;;;15.60;1.00;;;;;;4968400;28;20953;-73
2022/05/31 06:27:24;;;;;;;2.93;2.50;;;15.80;1.00;;;;;;4956855;28;20173;-72
2022/05/31 06:29:49;;;;;;;2.27;1.97;;;16.00;1.00;;;;;;4974898;28;20901;-75
2022/05/31 06:32:16;;;;;;;4.60;2.67;;;16.30;1.00;;;;;;4955477;28;20446;-76
2022/05/31 06:34:42;;;;;;;4.60;2.43;;;16.70;1.00;;;;;;4962650;28;20254;-76
2022/05/31 06:37:10;;;;;;;5.73;2.33;;;17.00;1.00;;;;;;4966343;28;20478;-75
2022/05/31 06:39:37;;;;;;;3.00;2.50;;;17.40;1.00;;;;;;4966214;28;20248;-75
2022/05/31 06:42:04;;;;;;;2.90;2.43;;;17.70;1.00;;;;;;4977395;28;20430;-76
2022/05/31 06:44:38;;;;;;;2.87;2.60;;;18.30;1.00;;;;;;4971977;28;21033;-75
2022/05/31 06:47:04;;;;;;;2.90;2.30;;;18.70;1.00;;;;;;4957963;28;20434;-76
2022/05/31 06:49:31;;;;;;;6.20;3.07;;;19.00;1.00;;;;;;4966202;28;20925;-76
2022/05/31 06:57:36;;;;;;;4.80;2.80;;;19.10;1.00;;;;;;4969116;28;20449;-78
2022/05/31 07:00:07;;;;;;;8.03;2.70;;;19.00;1.00;;;;;;4977768;28;20558;-77
2022/05/31 07:02:34;;;;;;;4.03;2.80;;;19.10;1.00;;;;;;4968795;28;20437;-76
2022/05/31 07:04:59;;;;;;;5.63;2.93;;;19.20;1.00;;;;;;4970634;28;20470;-75
2022/05/31 07:07:25;;;;;;;6.23;3.30;;;19.50;1.00;;;;;;4964859;28;20449;-76
2022/05/31 07:09:51;;;;;;;4.23;2.90;;;19.70;1.00;;;;;;4970778;28;20299;-77
2022/05/31 07:12:16;;;;;;;5.30;2.90;;;19.90;1.00;;;;;;4990480;28;20186;-77
2022/05/31 07:14:42;;;;;;;3.80;2.90;;;19.80;1.00;;;;;;4966392;28;20454;-76
2022/05/31 07:17:09;;;;;;;10.57;3.13;;;20.00;1.00;;;;;;4961025;28;20270;-76
2022/05/31 07:19:34;;;;;;;8.13;3.17;;;21.00;1.00;;;;;;4955833;28;20250;-75
2022/05/31 07:22:00;;;;;;;4.03;3.03;;;20.20;1.00;;;;;;4958621;28;20844;-76
2022/05/31 07:24:30;;;;;;;4.90;3.23;;;20.10;1.00;;;;;;4978235;28;20255;-76
2022/05/31 07:26:55;;;;;;;5.00;2.97;;;20.40;1.00;;;;;;4969186;28;20206;-77
2022/05/31 07:29:21;;;;;;;4.73;2.80;;;20.50;1.00;;;;;;4976288;28;20524;-76
2022/05/31 07:31:47;;;;;;;4.63;2.97;;;20.60;1.00;;;;;;4970499;28;20184;-77
2022/05/31 07:34:14;;;;;;;5.60;3.27;;;20.40;1.00;;;;;;4965452;28;20237;-77
2022/05/31 07:36:40;;;;;;;8.43;2.90;;;20.50;1.00;;;;;;4962284;28;20179;-76
2022/05/31 07:39:09;;;;;;;4.37;2.40;;;20.70;1.00;;;;;;4969881;28;20493;-76
2022/05/31 07:41:35;;;;;;;5.47;2.67;;;20.90;1.00;;;;;;4958572;28;20274;-74
2022/05/31 07:44:01;;;;;;;3.23;2.63;;;20.80;1.00;;;;;;4966156;28;20546;-73
2022/05/31 07:46:29;;;;;;;4.33;2.90;;;20.80;1.00;;;;;;4965802;28;20176;-73
2022/05/31 07:48:58;;;;;;;4.70;2.70;;;20.80;1.00;;;;;;4981928;28;20926;-73
2022/05/31 07:51:25;;;;;;;6.63;2.60;;;20.90;1.00;;;;;;4955698;28;20434;-73
2022/05/31 07:53:51;;;;;;;4.43;2.73;;;21.20;1.00;;;;;;4969642;28;20430;-73
2022/05/31 07:56:18;;;;;;;6.70;2.93;;;21.50;1.00;;;;;;4970410;28;20943;-73
2022/05/31 07:58:45;;;;;;;3.80;3.00;;;21.70;1.00;;;;;;4967085;28;20175;-73
2022/05/31 08:01:13;;;;;;;4.50;2.97;;;21.60;1.00;;;;;;4968530;28;20497;-73
2022/05/31 08:03:39;;;;;;;4.30;2.70;;;21.20;1.00;;;;;;4968318;28;21028;-74
2022/05/31 08:06:11;;;;;;;4.40;2.90;;;20.60;1.00;;;;;;4967594;28;20536;-73
2022/05/31 08:08:37;;;;;;;8.90;3.10;;;20.30;1.00;;;;;;4977224;28;20175;-73
2022/05/31 08:11:09;;;;;;;4.60;2.87;;;20.20;1.00;;;;;;4964925;28;20451;-73
2022/05/31 08:13:35;;;;;;;3.50;2.50;;;20.50;1.00;;;;;;4960447;28;20522;-73
2022/05/31 08:16:03;;;;;;;5.00;2.60;;;21.00;1.00;;;;;;4966860;28;20546;-73
2022/05/31 08:18:29;;;;;;;4.63;2.50;;;22.00;1.00;;;;;;4970626;28;20191;-72
2022/05/31 08:20:59;;;;;;;4.10;2.43;;;21.90;1.00;;;;;;4956270;28;20491;-73
2022/05/31 08:23:25;;;;;;;5.20;3.10;;;22.10;1.00;;;;;;4949875;28;20267;-74
2022/05/31 08:25:54;;;;;;;4.03;2.60;;;22.20;1.00;;;;;;4967393;28;20538;-73
2022/05/31 08:28:20;;;;;;;3.73;2.60;;;22.70;1.00;;;;;;4990632;28;20178;-74
2022/05/31 08:30:46;;;;;;;5.27;2.83;;;23.00;1.00;;;;;;4973096;28;20547;-73
2022/05/31 08:33:12;;;;;;;4.27;2.77;;;23.20;1.00;;;;;;4974041;28;20931;-73
2022/05/31 08:35:37;;;;;;;5.33;3.07;;;23.20;1.00;;;;;;4969316;28;20471;-73
2022/05/31 08:38:03;;;;;;;4.40;2.80;;;23.20;1.00;;;;;;4968208;28;20189;-74
2022/05/31 08:40:28;;;;;;;5.27;2.83;;;23.40;1.00;;;;;;4968919;28;20276;-73
2022/05/31 08:43:06;;;;;;;11.90;3.07;;;23.60;1.00;;;;;;4974339;28;20197;-74
2022/05/31 08:45:51;;;;;;;4.43;3.03;;;23.60;1.00;;;;;;4964089;28;20286;-74
2022/05/31 08:48:31;;;;;;;4.00;2.83;;;23.80;1.00;;;;;;4964755;28;20508;-73
2022/05/31 08:57:12;;;;;;;4.47;2.67;;;24.20;1.00;;;;;;4956900;28;21014;-73
2022/05/31 09:00:02;;;;;;;4.13;3.07;;;23.70;1.00;;;;;;4955037;28;20462;-73
2022/05/31 09:02:31;;;;;;;7.53;3.27;;;23.60;1.00;;;;;;4959630;28;20526;-74
2022/05/31 09:05:06;;;;;;;7.20;2.97;;;23.70;1.00;;;;;;4971463;28;20537;-73
2022/05/31 09:07:54;;;;;;;4.80;2.90;;;23.80;1.00;;;;;;4979681;28;20522;-73
2022/05/31 09:10:36;;;;;;;5.73;2.93;;;24.00;1.00;;;;;;4958865;28;20971;-74
2022/05/31 09:13:11;;;;;;;3.87;2.90;;;25.30;1.00;;;;;;4971837;28;20823;-73
2022/05/31 09:15:42;;;;;;;3.43;2.73;;;26.80;1.00;;;;;;4966134;28;20762;-74
2022/05/31 09:18:38;;;;;;;7.40;3.00;;;28.30;1.00;;;;;;4964577;28;20222;-73
2022/05/31 09:21:07;;;;;;;15.70;3.03;;;28.90;1.00;;;;;;4977170;28;20318;-74
2022/05/31 09:23:38;;;;;;;4.00;3.10;;;28.40;1.00;;;;;;4978103;28;20242;-74
2022/05/31 09:26:09;;;;;;;3.20;2.70;;;28.70;1.00;;;;;;4975506;28;20209;-74
2022/05/31 09:28:52;;;;;;;3.58;2.95;;;29.40;1.00;;;;;;4969730;28;20285;-74
2022/05/31 09:31:55;;;;;;;11.50;2.70;;;28.50;1.00;;;;;;4961806;28;20689;-74
2022/05/31 09:34:44;;;;;;;6.90;2.88;;;28.20;1.00;;;;;;4967509;28;20233;-74
2022/05/31 09:37:22;;;;;;;3.38;2.47;;;28.10;1.00;;;;;;4959806;28;20190;-74
2022/05/31 09:40:18;;;;;;;3.88;2.40;;;28.60;1.00;;;;;;4982126;28;20203;-74
2022/05/31 09:42:59;;;;;;;3.78;2.40;;;28.40;1.00;;;;;;4977284;28;20234;-74
2022/05/31 09:45:28;;;;;;;5.95;2.70;;;29.10;1.00;;;;;;4966229;28;20207;-74
2022/05/31 09:47:54;;;;;;;5.30;2.22;;;29.20;1.00;;;;;;4974737;28;20186;-74
2022/05/31 09:50:25;;;;;;;4.53;2.70;;;29.90;1.00;;;;;;4964712;28;20246;-74
2022/05/31 09:52:56;;;;;;;4.50;2.30;;;30.80;1.00;;;;;;4981529;28;20175;-74
2022/05/31 09:58:24;;;;;;;5.00;2.60;;;31.40;1.00;;;;;;4971820;28;20296;-74
2022/05/31 10:01:12;;;;;;;7.75;2.50;;;32.40;1.00;;;;;;4957111;28;20233;-74
2022/05/31 10:03:48;;;;;;;4.03;2.70;;;32.90;1.00;;;;;;4954310;28;20294;-75
2022/05/31 10:06:26;;;;;;;4.25;2.33;;;32.30;1.00;;;;;;4956127;28;20290;-73
2022/05/31 10:08:54;;;;;;;4.35;2.20;;;32.20;1.00;;;;;;4971479;28;20183;-75
2022/05/31 10:11:24;;;;;;;3.22;2.22;;;32.80;1.00;;;;;;4967699;28;20203;-74
2022/05/31 10:13:59;;;;;;;3.40;2.25;;;34.30;1.00;;;;;;4985090;28;20179;-74
2022/05/31 10:16:34;;;;;;;4.15;2.20;;;33.20;1.00;;;;;;4956889;28;20178;-74
2022/05/31 10:19:05;;;;;;;5.32;2.40;;;32.10;1.00;;;;;;4961999;28;20189;-74
2022/05/31 10:21:33;;;;;;;4.50;2.67;;;31.20;1.00;;;;;;4966671;28;20693;-74
2022/05/31 10:24:07;;;;;;;4.97;2.45;;;31.40;1.00;;;;;;4985097;28;20202;-73
2022/05/31 10:26:37;;;;;;;5.38;2.40;;;31.40;1.00;;;;;;4984439;28;20237;-74
2022/05/31 10:29:12;;;;;;;5.47;2.20;;;31.30;1.00;;;;;;4966685;28;20548;-73
2022/05/31 10:31:40;;;;;;;2.90;2.22;;;31.80;1.00;;;;;;4970346;28;20171;-73
2022/05/31 10:34:36;;;;;;;3.22;2.20;;;32.40;1.00;;;;;;4966233;28;20565;-73
2022/05/31 10:37:05;;;;;;;3.15;2.33;;;32.50;1.00;;;;;;4961834;28;20260;-73
2022/05/31 10:39:37;;;;;;;3.50;2.30;;;32.40;1.00;;;;;;4973716;28;20508;-74
2022/05/31 10:42:08;;;;;;;3.88;2.30;;;32.60;1.00;;;;;;4971897;28;20175;-74
2022/05/31 10:44:42;;;;;;;3.78;2.45;;;31.90;1.00;;;;;;4969139;28;20674;-74
2022/05/31 10:47:11;;;;;;;4.63;2.97;;;32.00;1.00;;;;;;4974744;28;20171;-75
2022/05/31 10:49:38;;;;;;;24.75;17.05;;;31.70;1.00;;;;;;4983361;28;20187;-75
2022/05/31 10:52:29;;;;;;;6.82;4.43;;;31.60;1.00;;;;;;4978109;28;20261;-75
2022/05/31 10:55:16;;;;;;;34.13;19.92;;;30.30;1.00;;;;;;4994383;28;20457;-74
2022/05/31 10:57:41;;;;;;;15.10;7.22;;;28.80;1.00;;;;;;4978411;28;20276;-75
2022/05/31 11:00:19;;;;;;;98.68;59.42;;;28.90;1.00;;;;;;4972210;28;20290;-75
2022/05/31 11:03:12;;;;;;;54.83;32.65;;;29.10;1.00;;;;;;4976226;28;20193;-74
2022/05/31 11:05:55;;;;;;;3.60;2.85;;;29.20;1.00;;;;;;4971151;28;20695;-75
2022/05/31 11:11:47;;;;;;;7.50;4.10;;;31.40;1.00;;;;;;4970301;28;20668;-76
2022/05/31 11:14:13;;;;;;;4.18;2.88;;;32.70;1.00;;;;;;4967913;28;20234;-75
2022/05/31 11:17:02;;;;;;;10.90;7.20;;;33.10;1.00;;;;;;4970627;28;20183;-76
2022/05/31 11:19:48;;;;;;;52.92;34.45;;;33.80;1.00;;;;;;4970424;28;20214;-77
2022/05/31 11:22:36;;;;;;;8.70;5.25;;;34.20;1.00;;;;;;4974814;28;20282;-75
2022/05/31 11:25:17;;;;;;;6.70;3.38;;;34.50;1.00;;;;;;4973357;28;20301;-76
2022/05/31 11:27:57;;;;;;;14.05;8.48;;;33.80;1.00;;;;;;4974165;28;20234;-75
2022/05/31 11:30:36;;;;;;;3.72;2.60;;;33.60;1.00;;;;;;4979684;28;20206;-75
2022/05/31 11:33:19;;;;;;;9.73;3.13;;;32.80;1.00;;;;;;4973420;28;20187;-75
2022/05/31 11:36:06;;;;;;;6.80;4.55;;;31.10;1.00;;;;;;4971894;28;20199;-76
2022/05/31 11:38:58;;;;;;;5.57;3.70;;;30.30;1.00;;;;;;4986526;28;20671;-76
2022/05/31 11:41:42;;;;;;;5.28;2.25;;;30.00;1.00;;;;;;4971947;28;20195;-75
2022/05/31 11:44:20;;;;;;;5.97;2.95;;;30.20;1.00;;;;;;4976042;28;20179;-75
2022/05/31 11:46:58;;;;;;;6.45;4.10;;;30.30;1.00;;;;;;4981330;28;20183;-74
2022/05/31 11:49:33;;;;;;;10.68;7.20;;;30.70;1.00;;;;;;4993434;28;20178;-75
2022/05/31 11:52:20;;;;;;;6.57;4.40;;;30.90;1.00;;;;;;4972081;28;20183;-76
2022/05/31 11:55:28;;;;;;;7.00;3.58;;;31.90;1.00;;;;;;4977670;28;20996;-77
2022/05/31 11:58:15;;;;;;;4.85;2.60;;;32.50;1.00;;;;;;4985343;28;20170;-76
2022/05/31 12:01:11;;;;;;;3.22;2.30;;;31.80;1.00;;;;;;4976695;28;20214;-74
2022/05/31 12:04:03;;;;;;;3.35;2.20;;;31.00;1.00;;;;;;4972883;28;20189;-73
2022/05/31 12:06:53;;;;;;;3.95;2.08;;;29.80;1.00;;;;;;4967853;28;20311;-73
2022/05/31 12:09:30;;;;;;;5.57;2.08;;;29.20;1.00;;;;;;4975128;28;20167;-73
2022/05/31 12:12:01;;;;;;;4.00;2.47;;;28.80;1.00;;;;;;4957588;28;20197;-73
2022/05/31 12:14:28;;;;;;;3.78;2.13;;;28.50;1.00;;;;;;4975528;28;20210;-74
2022/05/31 12:16:55;;;;;;;3.63;2.50;;;28.40;1.00;;;;;;4961252;28;20211;-73
2022/05/31 12:19:33;;;;;;;3.15;2.13;;;28.30;1.00;;;;;;4977723;28;20202;-73
2022/05/31 12:22:09;;;;;;;4.30;2.55;;;28.40;1.00;;;;;;4982719;28;20175;-73
2022/05/31 12:24:48;;;;;;;4.22;2.40;;;28.80;1.00;;;;;;4979282;28;20302;-73
2022/05/31 12:27:28;;;;;;;3.00;2.30;;;29.50;1.00;;;;;;4969070;28;21200;-73
2022/05/31 12:30:07;;;;;;;6.55;2.35;;;30.00;1.00;;;;;;4975420;28;20175;-74
2022/05/31 12:32:35;;;;;;;3.05;2.25;;;31.90;1.00;;;;;;4979523;28;20600;-74
2022/05/31 12:35:04;;;;;;;4.28;2.33;;;33.80;1.00;;;;;;4967331;28;20242;-74
2022/05/31 12:37:50;;;;;;;3.40;2.20;;;34.50;1.00;;;;;;4972411;28;20207;-74
2022/05/31 12:40:32;;;;;;;3.50;2.10;;;33.90;1.00;;;;;;4960763;28;20206;-73
2022/05/31 12:43:03;;;;;;;5.13;2.40;;;33.20;1.00;;;;;;4973884;28;20553;-74
2022/05/31 12:45:34;;;;;;;6.38;2.20;;;33.00;1.00;;;;;;4972135;28;20269;-74
2022/05/31 12:48:22;;;;;;;7.63;2.67;;;32.70;1.00;;;;;;4983655;28;20186;-74
2022/05/31 12:50:54;;;;;;;5.93;2.40;;;32.20;1.00;;;;;;4972596;28;20248;-73
2022/05/31 12:53:40;;;;;;;3.33;2.35;;;31.90;1.00;;;;;;4975232;28;20270;-74
2022/05/31 12:56:08;;;;;;;4.82;2.60;;;31.30;1.00;;;;;;4963020;28;20592;-74
2022/05/31 12:58:42;;;;;;;4.05;2.63;;;30.70;1.00;;;;;;4975193;28;20179;-73
2022/05/31 13:01:11;;;;;;;4.93;2.65;;;30.60;1.00;;;;;;4971452;28;20743;-73
2022/05/31 13:03:42;;;;;;;5.38;2.60;;;30.40;1.00;;;;;;4972842;28;20190;-74
2022/05/31 13:06:16;;;;;;;5.15;2.65;;;29.90;1.00;;;;;;4969231;28;20565;-74
2022/05/31 13:08:57;;;;;;;3.47;2.25;;;29.20;1.00;;;;;;4971047;28;20197;-74
2022/05/31 13:20:44;;;;;;;4.82;2.47;;;30.50;1.00;;;;;;4965957;28;20357;-73
2022/05/31 13:23:18;;;;;;;4.30;2.53;;;30.80;1.00;;;;;;4976426;28;20274;-73
2022/05/31 13:26:05;;;;;;;6.70;2.45;;;29.50;1.00;;;;;;4976451;28;20541;-73
2022/05/31 13:28:36;;;;;;;3.67;2.47;;;28.20;1.00;;;;;;4975484;28;20179;-73
2022/05/31 13:31:15;;;;;;;4.20;2.20;;;27.50;1.00;;;;;;4976027;28;20192;-73
2022/05/31 13:33:41;;;;;;;4.05;2.30;;;27.40;1.00;;;;;;4978981;28;20175;-73
2022/05/31 13:36:16;;;;;;;6.30;2.35;;;28.50;1.00;;;;;;4969244;28;20727;-73
2022/05/31 13:38:45;;;;;;;4.30;2.30;;;29.30;1.00;;;;;;4979632;28;20286;-72
2022/05/31 13:41:14;;;;;;;3.85;2.55;;;30.40;1.00;;;;;;4978571;28;20229;-73
2022/05/31 13:43:47;;;;;;;5.57;2.45;;;30.80;1.00;;;;;;4985083;28;20179;-73